createdAt,value
2022-11-14T00:01:13.456Z,20.67
2022-11-14T00:03:41.746Z,19.40
2022-11-14T00:06:09.319Z,22.07
2022-11-14T00:08:36.400Z,22.10
2022-11-14T00:11:03.949Z,21.27
2022-11-14T00:13:30.931Z,21.87
2022-11-14T00:15:57.921Z,21.60
2022-11-14T00:18:24.965Z,21.70
2022-11-14T00:20:53.986Z,21.73
2022-11-14T00:23:22.049Z,21.40
2022-11-14T00:25:49.649Z,21.97
2022-11-14T00:28:16.920Z,22.07
2022-11-14T00:30:47.996Z,22.30
2022-11-14T00:33:20.132Z,22.67
2022-11-14T00:35:54.532Z,24.23
2022-11-14T00:38:22.391Z,21.73
2022-11-14T00:40:49.338Z,21.67
2022-11-14T00:43:16.395Z,21.13
2022-11-14T00:45:44.726Z,22.47
2022-11-14T00:48:11.775Z,22.30
2022-11-14T00:50:38.810Z,22.80
2022-11-14T00:53:07.334Z,23.13
2022-11-14T00:55:34.288Z,22.33
2022-11-14T00:58:01.459Z,22.13
2022-11-14T01:00:28.582Z,21.90
2022-11-14T01:02:56.828Z,23.00
2022-11-14T01:05:24.626Z,22.47
2022-11-14T01:07:52.002Z,21.83
2022-11-14T01:10:21.045Z,21.90
2022-11-14T01:12:48.457Z,21.93
2022-11-14T01:15:15.468Z,21.67
2022-11-14T01:17:42.425Z,21.87
2022-11-14T01:20:09.882Z,21.03
2022-11-14T01:22:36.796Z,20.37
2022-11-14T01:25:04.372Z,20.80
2022-11-14T01:27:32.787Z,20.73
2022-11-14T01:29:59.760Z,21.57
2022-11-14T01:32:27.304Z,21.47
2022-11-14T01:34:54.547Z,21.93
2022-11-14T01:37:21.905Z,22.27
2022-11-14T01:39:48.967Z,20.60
2022-11-14T01:42:17.617Z,21.77
2022-11-14T01:44:49.143Z,21.60
2022-11-14T01:47:22.375Z,21.43
2022-11-14T01:49:54.606Z,20.60
2022-11-14T01:52:26.561Z,23.30
2022-11-14T01:54:58.708Z,21.37
2022-11-14T01:57:31.152Z,21.93
2022-11-14T02:00:06.067Z,20.93
2022-11-14T02:02:33.169Z,21.20
2022-11-14T02:05:06.722Z,19.97
2022-11-14T02:07:39.827Z,20.37
2022-11-14T02:10:11.295Z,21.63
2022-11-14T02:12:38.534Z,19.97
2022-11-14T02:15:09.958Z,20.50
2022-11-14T02:17:37.064Z,21.07
2022-11-14T02:20:19.017Z,19.90
2022-11-14T02:22:45.927Z,21.03
2022-11-14T02:25:18.502Z,20.77
2022-11-14T02:27:45.584Z,20.70
2022-11-14T02:30:18.333Z,21.13
2022-11-14T02:33:09.548Z,20.37
2022-11-14T02:35:33.928Z,20.77
2022-11-14T02:38:00.932Z,20.70
2022-11-14T02:40:27.853Z,21.87
2022-11-14T02:42:54.801Z,20.47
2022-11-14T02:45:21.867Z,20.77
2022-11-14T02:47:48.855Z,23.20
2022-11-14T02:50:16.610Z,21.30
2022-11-14T02:52:44.845Z,19.77
2022-11-14T02:55:12.520Z,21.53
2022-11-14T02:57:39.656Z,22.20
2022-11-14T03:00:14.370Z,22.93
2022-11-14T03:02:42.257Z,22.67
2022-11-14T03:05:09.799Z,20.03
2022-11-14T03:07:36.805Z,21.20
2022-11-14T03:10:06.939Z,20.60
2022-11-14T03:12:33.964Z,22.77
2022-11-14T03:15:00.948Z,21.60
2022-11-14T03:17:32.115Z,21.03
2022-11-14T03:19:59.137Z,21.77
2022-11-14T03:22:26.299Z,22.20
2022-11-14T03:24:53.609Z,22.77
2022-11-14T03:27:22.085Z,21.17
2022-11-14T03:29:49.307Z,22.07
2022-11-14T03:32:16.559Z,21.97
2022-11-14T03:34:43.497Z,21.97
2022-11-14T03:37:10.943Z,22.37
2022-11-14T03:39:37.865Z,21.07
2022-11-14T03:42:05.070Z,20.47
2022-11-14T03:44:33.332Z,21.27
2022-11-14T03:47:00.311Z,21.93
2022-11-14T03:49:27.400Z,21.93
2022-11-14T03:51:54.329Z,21.83
2022-11-14T03:54:21.312Z,22.97
2022-11-14T03:56:48.388Z,22.93
2022-11-14T03:59:15.319Z,20.73
2022-11-14T04:01:43.582Z,22.03
2022-11-14T04:04:12.381Z,22.23
2022-11-14T04:06:39.314Z,21.17
2022-11-14T04:09:06.586Z,21.90
2022-11-14T04:11:33.535Z,22.60
2022-11-14T04:14:00.512Z,21.47
2022-11-14T04:16:27.549Z,24.03
2022-11-14T04:18:55.834Z,22.93
2022-11-14T04:21:22.745Z,23.87
2022-11-14T04:23:49.766Z,21.93
2022-11-14T04:26:16.706Z,22.00
2022-11-14T04:28:43.756Z,22.80
2022-11-14T04:31:10.856Z,23.23
2022-11-14T04:33:37.810Z,23.07
2022-11-14T04:36:07.228Z,22.67
2022-11-14T04:38:34.170Z,23.23
2022-11-14T04:41:01.110Z,23.37
2022-11-14T04:43:28.075Z,23.50
2022-11-14T04:45:54.999Z,22.47
2022-11-14T04:48:22.007Z,23.70
2022-11-14T04:50:48.923Z,24.80
2022-11-14T04:53:17.287Z,22.13
2022-11-14T04:55:45.597Z,22.87
2022-11-14T04:58:12.563Z,24.10
2022-11-14T05:00:39.831Z,24.67
2022-11-14T05:03:06.734Z,24.53
2022-11-14T05:05:35.957Z,22.93
2022-11-14T05:08:06.324Z,24.03
2022-11-14T05:10:34.693Z,21.87
2022-11-14T05:13:02.310Z,22.13
2022-11-14T05:15:29.287Z,22.17
2022-11-14T05:17:57.723Z,23.67
2022-11-14T05:20:24.734Z,24.23
2022-11-14T05:22:54.289Z,23.17
2022-11-14T05:25:21.855Z,22.60
2022-11-14T05:27:50.199Z,24.30
2022-11-14T05:30:17.880Z,23.10
2022-11-14T05:32:45.019Z,24.33
2022-11-14T05:35:12.137Z,24.27
2022-11-14T05:37:39.229Z,25.43
2022-11-14T05:40:07.174Z,22.80
2022-11-14T05:42:34.125Z,23.20
2022-11-14T05:45:02.496Z,23.03
2022-11-14T05:47:29.454Z,24.30
2022-11-14T05:49:56.428Z,22.93
2022-11-14T05:52:23.356Z,24.37
2022-11-14T05:54:50.323Z,24.93
2022-11-14T05:57:17.297Z,24.97
2022-11-14T05:59:44.306Z,25.67
2022-11-14T06:02:12.642Z,23.90
2022-11-14T06:04:39.664Z,23.70
2022-11-14T06:07:06.769Z,20.93
2022-11-14T06:09:33.721Z,24.90
2022-11-14T06:12:00.659Z,24.47
2022-11-14T06:14:27.566Z,25.00
2022-11-14T06:16:54.504Z,25.30
2022-11-14T06:19:22.778Z,25.47
2022-11-14T06:21:49.781Z,24.97
2022-11-14T06:24:16.999Z,25.77
2022-11-14T06:26:43.992Z,25.33
2022-11-14T06:29:11.480Z,24.90
2022-11-14T06:31:38.469Z,23.60
2022-11-14T06:34:06.159Z,23.67
2022-11-14T06:36:34.490Z,25.20
2022-11-14T06:39:01.450Z,25.07
2022-11-14T06:41:28.435Z,25.07
2022-11-14T06:43:55.480Z,25.23
2022-11-14T06:46:23.681Z,25.57
2022-11-14T06:48:52.435Z,26.47
2022-11-14T06:51:19.745Z,26.93
2022-11-14T06:53:48.076Z,26.47
2022-11-14T06:56:17.588Z,24.90
2022-11-14T06:58:47.551Z,26.03
2022-11-14T07:01:17.606Z,25.30
2022-11-14T07:03:45.962Z,26.00
2022-11-14T07:06:15.978Z,24.67
2022-11-14T07:08:43.047Z,25.83
2022-11-14T07:11:22.587Z,24.20
2022-11-14T07:13:49.766Z,27.43
2022-11-14T07:16:17.146Z,25.67
2022-11-14T07:18:44.649Z,24.97
2022-11-14T07:21:13.317Z,26.60
2022-11-14T07:23:48.229Z,24.47
2022-11-14T07:26:20.475Z,26.00
2022-11-14T07:28:53.620Z,27.00
2022-11-14T07:31:25.130Z,27.10
2022-11-14T07:33:52.216Z,28.10
2022-11-14T07:36:19.323Z,27.67
2022-11-14T07:38:47.353Z,27.23
2022-11-14T07:41:17.396Z,27.07
2022-11-14T07:43:45.060Z,28.23
2022-11-14T07:46:15.502Z,25.13
2022-11-14T07:48:43.523Z,25.70
2022-11-14T07:51:18.518Z,28.40
2022-11-14T07:53:46.188Z,27.00
2022-11-14T07:56:13.552Z,27.87
2022-11-14T07:58:42.294Z,27.80
2022-11-14T08:01:13.024Z,27.00
2022-11-14T08:03:45.594Z,25.17
2022-11-14T08:06:15.656Z,26.70
2022-11-14T08:08:42.925Z,27.57
2022-11-14T08:11:10.443Z,25.50
2022-11-14T08:13:37.718Z,28.63
2022-11-14T08:16:13.254Z,26.13
2022-11-14T08:18:41.388Z,27.73
2022-11-14T08:21:08.738Z,27.40
2022-11-14T08:23:35.965Z,25.93
2022-11-14T08:26:03.232Z,28.63
2022-11-14T08:28:30.551Z,27.37
2022-11-14T08:31:00.461Z,29.57
2022-11-14T08:33:29.210Z,29.23
2022-11-14T08:35:56.159Z,27.67
2022-11-14T08:38:23.176Z,27.13
2022-11-14T08:40:50.122Z,27.10
2022-11-14T08:43:17.057Z,27.17
2022-11-14T08:45:44.208Z,27.53
2022-11-14T08:48:14.354Z,28.17
2022-11-14T08:50:45.819Z,26.83
2022-11-14T08:53:12.786Z,27.20
2022-11-14T08:55:44.183Z,26.70
2022-11-14T08:58:11.592Z,28.80
2022-11-14T09:00:38.579Z,26.30
2022-11-14T09:03:08.276Z,27.07
2022-11-14T09:05:38.604Z,28.00
2022-11-14T09:08:07.710Z,29.30
2022-11-14T09:10:35.140Z,28.73
2022-11-14T09:13:02.770Z,25.50
2022-11-14T09:15:30.647Z,27.10
2022-11-14T09:17:58.167Z,26.70
2022-11-14T09:20:31.670Z,27.70
2022-11-14T09:23:01.373Z,25.20
2022-11-14T09:25:30.700Z,24.33
2022-11-14T09:27:58.718Z,25.27
2022-11-14T09:30:25.831Z,24.90
2022-11-14T09:32:52.786Z,26.30
2022-11-14T09:35:19.884Z,24.67
2022-11-14T09:37:46.854Z,27.17
2022-11-14T09:40:14.372Z,25.30
2022-11-14T09:43:17.883Z,28.10
2022-11-14T09:45:52.441Z,25.87
2022-11-14T09:48:25.826Z,24.60
2022-11-14T09:51:07.066Z,24.80
2022-11-14T09:53:40.676Z,25.40
2022-11-14T09:56:12.863Z,27.53
2022-11-14T09:58:42.828Z,26.23
2022-11-14T10:01:17.793Z,25.17
2022-11-14T10:03:58.454Z,28.07
2022-11-14T10:06:33.482Z,27.27
2022-11-14T10:09:30.188Z,26.27
2022-11-14T10:12:13.166Z,25.27
2022-11-14T10:15:10.326Z,26.37
2022-11-14T10:18:07.122Z,25.80
2022-11-14T10:20:44.870Z,25.53
2022-11-14T10:23:40.219Z,26.83
2022-11-14T10:26:15.480Z,26.80
2022-11-14T10:29:06.521Z,25.90
2022-11-14T10:31:51.969Z,26.30
2022-11-14T10:34:34.210Z,26.30
2022-11-14T10:37:17.080Z,23.83
2022-11-14T10:39:53.184Z,27.63
2022-11-14T10:42:29.845Z,25.87
2022-11-14T10:45:04.310Z,26.33
2022-11-14T10:47:40.893Z,24.27
2022-11-14T10:50:19.523Z,23.27
2022-11-14T10:52:52.375Z,24.50
2022-11-14T10:55:24.864Z,24.90
2022-11-14T10:58:11.005Z,23.00
2022-11-14T11:00:38.019Z,25.50
2022-11-14T11:03:07.509Z,23.07
2022-11-14T11:05:50.683Z,25.70
2022-11-14T11:08:43.588Z,24.93
2022-11-14T11:11:36.148Z,24.30
2022-11-14T11:14:03.632Z,25.17
2022-11-14T11:16:30.677Z,24.00
2022-11-14T11:19:21.340Z,25.57
2022-11-14T11:21:51.804Z,23.80
2022-11-14T11:24:33.130Z,22.50
2022-11-14T11:27:23.666Z,24.73
2022-11-14T11:30:10.203Z,22.80
2022-11-14T11:32:37.261Z,23.83
2022-11-14T11:35:13.588Z,25.43
2022-11-14T11:37:46.575Z,24.97
2022-11-14T11:40:20.315Z,25.03
2022-11-14T11:45:49.745Z,23.83
2022-11-14T11:48:20.306Z,24.43
2022-11-14T11:50:50.301Z,24.03
2022-11-14T11:53:24.390Z,23.70
2022-11-14T11:55:56.463Z,24.63
2022-11-14T11:58:29.503Z,22.63
2022-11-14T12:00:56.561Z,23.40
2022-11-14T12:03:27.424Z,27.00
2022-11-14T12:06:13.881Z,24.90
2022-11-14T12:08:58.230Z,23.90
2022-11-14T12:11:30.226Z,24.73
2022-11-14T12:14:39.417Z,25.67
2022-11-14T12:18:16.989Z,23.90
2022-11-14T12:21:10.166Z,25.23
2022-11-14T12:24:22.940Z,25.50
2022-11-14T12:27:17.558Z,24.40
2022-11-14T12:30:11.840Z,23.67
2022-11-14T12:32:44.838Z,25.67
2022-11-14T12:35:21.433Z,26.33
2022-11-14T12:37:55.986Z,24.17
2022-11-14T12:40:35.846Z,24.87
2022-11-14T12:43:06.738Z,23.87
2022-11-14T12:45:57.947Z,24.97
2022-11-14T12:48:33.659Z,24.67
2022-11-14T12:51:03.658Z,24.10
2022-11-14T12:53:45.113Z,25.00
2022-11-14T12:57:00.090Z,23.77
2022-11-14T12:59:40.086Z,24.20
2022-11-14T13:02:56.276Z,25.80
2022-11-14T13:05:47.383Z,23.23
2022-11-14T13:08:50.934Z,25.03
2022-11-14T13:12:03.101Z,24.23
2022-11-14T13:14:49.875Z,24.00
2022-11-14T13:17:44.943Z,24.13
2022-11-14T13:20:47.588Z,23.83
2022-11-14T13:23:56.655Z,23.40
2022-11-14T13:26:54.789Z,24.27
2022-11-14T13:29:54.251Z,23.20
2022-11-14T13:33:01.106Z,24.60
2022-11-14T13:35:51.349Z,24.17
2022-11-14T13:39:01.539Z,23.43
2022-11-14T13:42:06.090Z,23.07
2022-11-14T13:45:18.952Z,25.17
2022-11-14T13:48:19.733Z,22.43
2022-11-14T13:50:52.223Z,24.37
2022-11-14T13:53:24.495Z,24.20
2022-11-14T13:56:16.102Z,23.93
2022-11-14T13:59:14.144Z,22.97
2022-11-14T14:02:06.706Z,22.03
2022-11-14T14:04:53.272Z,22.23
2022-11-14T14:07:39.986Z,23.13
2022-11-14T14:10:24.261Z,22.60
2022-11-14T14:13:14.264Z,23.57
2022-11-14T14:15:50.173Z,22.13
2022-11-14T14:18:35.121Z,23.47
2022-11-14T14:21:17.746Z,21.73
2022-11-14T14:23:58.426Z,22.20
2022-11-14T14:26:38.072Z,24.27
2022-11-14T14:29:25.198Z,22.73
2022-11-14T14:31:52.610Z,21.90
2022-11-14T14:34:23.963Z,22.30
2022-11-14T14:36:54.179Z,23.23
2022-11-14T14:39:27.245Z,21.73
2022-11-14T14:41:58.166Z,23.07
2022-11-14T14:44:34.203Z,21.17
2022-11-14T14:47:16.575Z,22.03
2022-11-14T14:49:44.887Z,21.93
2022-11-14T14:52:28.044Z,21.47
2022-11-14T14:54:56.851Z,22.63
2022-11-14T14:57:24.311Z,21.93
2022-11-14T15:00:01.387Z,19.70
2022-11-14T15:02:29.894Z,20.73
2022-11-14T15:04:59.842Z,20.80
2022-11-14T15:07:30.481Z,19.87
2022-11-14T15:10:01.398Z,22.20
2022-11-14T15:12:32.193Z,21.33
2022-11-14T15:15:03.237Z,22.10
2022-11-14T15:17:35.666Z,22.43
2022-11-14T15:20:03.733Z,21.37
2022-11-14T15:22:30.899Z,20.40
2022-11-14T15:25:20.205Z,20.97
2022-11-14T15:27:53.259Z,20.27
2022-11-14T15:30:26.095Z,20.57
2022-11-14T15:32:55.794Z,18.07
2022-11-14T15:35:31.053Z,19.53
2022-11-14T15:41:20.758Z,20.53
2022-11-14T15:43:52.913Z,19.33
2022-11-14T15:46:46.192Z,19.87
2022-11-14T15:49:25.360Z,20.97
2022-11-14T15:51:58.433Z,20.53
2022-11-14T15:54:29.266Z,20.77
2022-11-14T15:56:59.653Z,19.87
2022-11-14T15:59:30.112Z,21.17
2022-11-14T16:02:04.313Z,21.30
2022-11-14T16:04:35.614Z,21.87
2022-11-14T16:07:02.822Z,21.97
2022-11-14T16:09:30.174Z,20.13
2022-11-14T16:11:57.401Z,19.67
2022-11-14T16:14:24.489Z,19.43
2022-11-14T16:16:51.433Z,20.33
2022-11-14T16:19:21.796Z,21.70
2022-11-14T16:21:49.080Z,21.03
2022-11-14T16:24:18.716Z,20.53
2022-11-14T16:26:46.562Z,20.07
2022-11-14T16:29:13.966Z,21.37
2022-11-14T16:31:41.630Z,20.43
2022-11-14T16:34:19.949Z,21.03
2022-11-14T16:36:48.756Z,21.60
2022-11-14T16:39:16.514Z,24.13
2022-11-14T16:41:43.940Z,22.80
2022-11-14T16:44:16.670Z,20.10
2022-11-14T16:46:44.754Z,19.60
2022-11-14T16:49:15.142Z,20.87
2022-11-14T16:51:48.149Z,21.57
2022-11-14T16:54:19.570Z,20.93
2022-11-14T16:56:47.954Z,21.23
2022-11-14T16:59:15.351Z,19.67
2022-11-14T17:01:43.368Z,20.03
2022-11-14T17:04:11.002Z,22.57
2022-11-14T17:06:38.406Z,20.87
2022-11-14T17:09:05.481Z,23.00
2022-11-14T17:11:33.958Z,21.23
2022-11-14T17:14:01.135Z,22.63
2022-11-14T17:16:28.248Z,22.20
2022-11-14T17:18:56.165Z,22.87
2022-11-14T17:21:24.527Z,22.10
2022-11-14T17:23:55.574Z,20.07
2022-11-14T17:26:23.389Z,20.77
2022-11-14T17:28:51.774Z,21.60
2022-11-14T17:31:19.209Z,22.07
2022-11-14T17:33:51.609Z,21.67
2022-11-14T17:36:18.991Z,21.27
2022-11-14T17:38:46.080Z,21.97
2022-11-14T17:41:13.165Z,22.57
2022-11-14T17:43:40.816Z,21.13
2022-11-14T17:46:15.873Z,22.17
2022-11-14T17:48:43.671Z,22.43
2022-11-14T17:51:13.817Z,23.10
2022-11-14T17:53:42.337Z,23.60
2022-11-14T17:56:13.511Z,21.93
2022-11-14T17:58:40.846Z,22.07
2022-11-14T18:01:14.942Z,20.80
2022-11-14T18:03:42.333Z,23.13
2022-11-14T18:06:12.410Z,24.90
2022-11-14T18:08:41.187Z,22.83
2022-11-14T18:11:12.091Z,22.47
2022-11-14T18:13:40.250Z,23.83
2022-11-14T18:16:13.040Z,22.03
2022-11-14T18:18:40.902Z,21.07
2022-11-14T18:21:10.192Z,23.13
2022-11-14T18:23:38.595Z,22.60
2022-11-14T18:26:11.108Z,22.97
2022-11-14T18:28:38.652Z,24.30
2022-11-14T18:31:07.379Z,22.27
2022-11-14T18:33:36.367Z,23.57
2022-11-14T18:36:08.234Z,25.40
2022-11-14T18:38:35.862Z,23.67
2022-11-14T18:41:08.271Z,23.90
2022-11-14T18:43:36.327Z,23.23
2022-11-14T18:46:10.902Z,23.83
2022-11-14T18:48:42.434Z,24.90
2022-11-14T18:51:14.385Z,24.10
2022-11-14T18:53:41.844Z,24.30
2022-11-14T18:56:11.819Z,20.60
2022-11-14T18:58:40.685Z,24.83
2022-11-14T19:01:13.632Z,22.47
2022-11-14T19:03:42.806Z,23.33
2022-11-14T19:06:12.514Z,23.20
2022-11-14T19:08:40.820Z,24.20
2022-11-14T19:11:30.171Z,21.90
2022-11-14T19:14:00.450Z,22.93
2022-11-14T19:16:29.386Z,22.73
2022-11-14T19:18:59.263Z,22.87
2022-11-14T19:21:28.114Z,22.73
2022-11-14T19:23:55.775Z,21.33
2022-11-14T19:26:25.495Z,22.23
2022-11-14T19:28:53.504Z,20.63
2022-11-14T19:31:22.840Z,19.77
2022-11-14T19:33:50.200Z,22.10
2022-11-14T19:36:45.327Z,21.13
2022-11-14T19:39:10.015Z,20.43
2022-11-14T19:41:37.302Z,20.37
2022-11-14T19:44:05.248Z,20.40
2022-11-14T19:46:32.506Z,22.30
2022-11-14T19:49:01.331Z,20.53
2022-11-14T19:51:32.741Z,20.23
2022-11-14T19:54:01.776Z,21.30
2022-11-14T19:56:29.034Z,19.90
2022-11-14T19:58:57.193Z,19.70
2022-11-14T20:01:26.603Z,19.90
2022-11-14T20:03:56.509Z,19.67
2022-11-14T20:06:27.272Z,19.10
2022-11-14T20:08:57.259Z,17.87
2022-11-14T20:11:28.277Z,20.80
2022-11-14T20:13:57.707Z,18.80
2022-11-14T20:16:28.532Z,18.73
2022-11-14T20:18:59.216Z,19.17
2022-11-14T20:21:29.460Z,18.00
2022-11-14T20:23:58.450Z,19.20
2022-11-14T20:26:26.071Z,19.30
2022-11-14T20:28:54.492Z,17.83
2022-11-14T20:31:24.773Z,18.20
2022-11-14T20:33:53.496Z,17.57
2022-11-14T20:36:23.854Z,17.93
2022-11-14T20:38:52.042Z,17.70
2022-11-14T20:41:20.886Z,16.83
2022-11-14T20:43:48.308Z,17.60
2022-11-14T20:46:18.189Z,18.50
2022-11-14T20:48:46.701Z,18.20
2022-11-14T20:51:16.608Z,17.30
2022-11-14T20:53:44.733Z,16.63
2022-11-14T20:56:13.546Z,18.33
2022-11-14T20:58:42.948Z,17.53
2022-11-14T21:01:10.732Z,18.30
2022-11-14T21:03:38.580Z,16.43
2022-11-14T21:06:07.639Z,17.60
2022-11-14T21:08:35.959Z,18.00
2022-11-14T21:11:06.555Z,18.00
2022-11-14T21:13:54.875Z,18.43
2022-11-14T21:16:27.370Z,17.07
2022-11-14T21:18:55.573Z,15.63
2022-11-14T21:21:27.118Z,16.83
2022-11-14T21:23:55.619Z,15.47
2022-11-14T21:26:25.206Z,17.67
2022-11-14T21:28:55.571Z,18.67
2022-11-14T21:31:27.469Z,17.77
2022-11-14T21:33:56.904Z,17.17
2022-11-14T21:39:14.497Z,16.73
2022-11-14T21:41:42.909Z,18.77
2022-11-14T21:44:13.165Z,16.37
2022-11-14T21:46:42.171Z,17.23
2022-11-14T21:49:09.900Z,17.57
2022-11-14T21:51:36.842Z,17.43
2022-11-14T21:54:06.161Z,17.30
2022-11-14T21:56:35.811Z,18.93
2022-11-14T21:59:14.261Z,17.40
2022-11-14T22:02:03.830Z,18.43
2022-11-14T22:04:31.803Z,18.77
2022-11-14T22:06:59.532Z,18.50
2022-11-14T22:09:27.946Z,17.93
2022-11-14T22:11:55.485Z,17.53
2022-11-14T22:14:22.615Z,17.13
2022-11-14T22:16:51.206Z,18.80
2022-11-14T22:19:18.903Z,16.53
2022-11-14T22:21:46.098Z,15.83
2022-11-14T22:24:13.029Z,17.70
2022-11-14T22:26:41.225Z,17.77
2022-11-14T22:29:09.141Z,15.43
2022-11-14T22:31:37.998Z,17.10
2022-11-14T22:34:06.723Z,18.20
2022-11-14T22:36:33.810Z,17.37
2022-11-14T22:39:01.075Z,16.30
2022-11-14T22:41:33.028Z,16.70
2022-11-14T22:44:01.430Z,17.03
2022-11-14T22:46:29.192Z,16.90
2022-11-14T22:48:56.520Z,15.47
2022-11-14T22:51:27.241Z,15.67
2022-11-14T22:53:57.199Z,16.17
2022-11-14T22:56:27.421Z,15.87
2022-11-14T22:58:55.127Z,17.77
2022-11-14T23:01:24.421Z,17.00
2022-11-14T23:03:54.966Z,15.47
2022-11-14T23:06:24.368Z,16.30
2022-11-14T23:08:52.157Z,16.83
2022-11-14T23:11:22.338Z,15.43
2022-11-14T23:13:51.974Z,17.20
2022-11-14T23:16:22.573Z,16.13
2022-11-14T23:18:50.920Z,17.00
2022-11-14T23:21:20.931Z,16.20
2022-11-14T23:23:54.529Z,17.43
2022-11-14T23:26:22.499Z,16.90
2022-11-14T23:28:49.926Z,16.00
2022-11-14T23:31:20.527Z,15.63
2022-11-14T23:33:48.818Z,16.20
2022-11-14T23:36:16.330Z,15.77
2022-11-14T23:38:43.486Z,16.37
2022-11-14T23:41:17.415Z,16.23
2022-11-14T23:43:45.142Z,16.70
2022-11-14T23:46:13.154Z,15.10
2022-11-14T23:48:40.674Z,16.77
2022-11-14T23:51:08.091Z,15.40
2022-11-14T23:53:35.070Z,15.63
2022-11-14T23:56:02.555Z,16.50
2022-11-14T23:58:31.014Z,14.77
